Pacific Raven — WDD9278 — position and weather

sailwx.info

Track history (hours):
 
Tides and Currents Weather Stations Pressure Air Temp Water Temp Dewpoint Dewpoint Depression Visibility Wind Speed Wind Dir Waves Ship Positions

Pacific Raven

Owner: Kirby Offshore Marine, LLC, HOUSTON, TX. More information available from US FCC via Universal Licensing System and Coast Guard Vessel Documentation Center.

Last reported at 2017-Nov-23 03:38 UTC. Time now 2017-Dec-15 13:58 UTC.
Position N 47°40' W 122°23'.
Warning: this ship's position is 22 days out of date.

Length 31 m; draft 3.5 m.

Type: Towing. MMSI: 367309330.

Date/timePositionNaut miles runAvg speedWind from/ knotsBaromVisibWave heightAir tempDewpointWater temp
2017-Nov-23 03:38N 47°40' W 122°23'0 0.0
2017-Nov-23 03:31N 47°40' W 122°23'1 2.9
2017-Nov-23 03:00N 47°41' W 122°25'611.5
2017-Nov-23 02:31N 47°35' W 122°26'612.7
2017-Nov-23 02:01N 47°29' W 122°24'613.0
2017-Nov-23 01:30N 47°23' W 122°21'612.7
2017-Nov-23 01:00N 47°18' W 122°27'3 2.5
2017-Nov-22 23:54N 47°16' W 122°25'0 0.0
2017-Nov-22 23:24N 47°16' W 122°25'0 0.0
2017-Nov-22 22:54N 47°16' W 122°25'  
2017-Nov-17 16:56N 47°17' W 122°25'1 1.4
2017-Nov-17 16:30N 47°17' W 122°26'1 2.4
2017-Nov-17 16:01N 47°18' W 122°28'2 3.5
2017-Nov-17 15:30N 47°20' W 122°28'2 3.3
2017-Nov-17 15:01N 47°21' W 122°26'2 3.0
2017-Nov-17 14:31N 47°22' W 122°24'2 3.6
2017-Nov-17 14:01N 47°23' W 122°22'2 3.7
2017-Nov-17 13:31N 47°25' W 122°23'2 4.8
2017-Nov-17 13:01N 47°27' W 122°25'3 5.1
2017-Nov-17 12:31N 47°29' W 122°26'2 4.9
2017-Nov-17 12:01N 47°32' W 122°27'3 6.3
2017-Nov-17 11:31N 47°35' W 122°28'4 8.5
2017-Nov-17 11:01N 47°39' W 122°28'4 8.4
2017-Nov-17 10:31N 47°43' W 122°27'4 8.4
2017-Nov-17 10:01N 47°47' W 122°27'4 8.5
2017-Nov-17 09:30N 47°52' W 122°28'4 8.8
2017-Nov-17 09:00N 47°56' W 122°31'34 8.8
2017-Nov-17 05:05N 48°12' W 123°16'2 8.0
2017-Nov-17 04:54N 48°12' W 123°18'3 7.1
2017-Nov-17 04:30N 48°12' W 123°23'6 9.4
2017-Nov-17 03:54N 48°12' W 123°31'3 7.9
2017-Nov-17 03:30N 48°12' W 123°36'5 8.3
2017-Nov-17 02:57N 48°12' W 123°43'17 8.1
2017-Nov-17 00:50N 48°16' W 124°08'410.1
2017-Nov-17 00:29N 48°18' W 124°12'5 9.6
2017-Nov-16 23:58N 48°20' W 124°19'4 9.2
2017-Nov-16 23:31N 48°22' W 124°25'5 8.9
2017-Nov-16 23:00N 48°23' W 124°31'4 9.0
2017-Nov-16 22:31N 48°25' W 124°37'510.0
2017-Nov-16 22:00N 48°27' W 124°44'28 8.3
2017-Nov-16 18:40N 48°34' W 125°24'1 8.3
2017-Nov-16 18:29N 48°35' W 125°26'4 8.2
2017-Nov-16 18:00N 48°38' W 125°31'4 7.8
2017-Nov-16 17:30N 48°40' W 125°35'4 7.5
2017-Nov-16 17:00N 48°43' W 125°40'4 7.6
2017-Nov-16 16:30N 48°45' W 125°44'4 7.2
2017-Nov-16 16:01N 48°47' W 125°49'3 6.4
2017-Nov-16 15:30N 48°48' W 125°53'3 6.7
2017-Nov-16 15:01N 48°50' W 125°57'3 6.8
2017-Nov-16 14:30N 48°52' W 126°02'3 6.9
2017-Nov-16 14:00N 48°54' W 126°06'  
2017-Nov-14 06:07N 53°43' W 130°56'2 8.6
2017-Nov-14 05:55N 53°45' W 130°56'4 8.4
2017-Nov-14 05:26N 53°49' W 130°57'5 8.0
2017-Nov-14 04:51N 53°54' W 130°58'4 8.0
2017-Nov-14 04:21N 53°58' W 130°59'3 8.5
2017-Nov-14 04:00N 54°01' W 130°60'4 8.7
2017-Nov-14 03:30N 54°05' W 131°02'4 8.6
2017-Nov-14 03:00N 54°09' W 131°02'4 8.8
2017-Nov-14 02:30N 54°14' W 131°03'4 9.0
2017-Nov-14 02:00N 54°18' W 131°05'  
Track history (hours):
 
Tides and Currents Weather Stations Pressure Air Temp Water Temp Dewpoint Dewpoint Depression Visibility Wind Speed Wind Dir Waves Ship Positions

Pacific Raven

Owner: Kirby Offshore Marine, LLC, HOUSTON, TX. More information available from US FCC via Universal Licensing System and Coast Guard Vessel Documentation Center.

Last reported at 2017-Nov-23 03:38 UTC. Time now 2017-Dec-15 13:58 UTC.
Position N 47°40' W 122°23'.
Warning: this ship's position is 22 days out of date.

Length 31 m; draft 3.5 m.

Type: Towing. MMSI: 367309330.

Date/timePositionNaut miles runAvg speedWind from/ knotsBaromVisibWave heightAir tempDewpointWater temp
2017-Nov-23 03:38N 47°40' W 122°23'0 0.0
2017-Nov-23 03:31N 47°40' W 122°23'1 2.9
2017-Nov-23 03:00N 47°41' W 122°25'611.5
2017-Nov-23 02:31N 47°35' W 122°26'612.7
2017-Nov-23 02:01N 47°29' W 122°24'613.0
2017-Nov-23 01:30N 47°23' W 122°21'612.7
2017-Nov-23 01:00N 47°18' W 122°27'3 2.5
2017-Nov-22 23:54N 47°16' W 122°25'0 0.0
2017-Nov-22 23:24N 47°16' W 122°25'0 0.0
2017-Nov-22 22:54N 47°16' W 122°25'  
2017-Nov-17 16:56N 47°17' W 122°25'1 1.4
2017-Nov-17 16:30N 47°17' W 122°26'1 2.4
2017-Nov-17 16:01N 47°18' W 122°28'2 3.5
2017-Nov-17 15:30N 47°20' W 122°28'2 3.3
2017-Nov-17 15:01N 47°21' W 122°26'2 3.0
2017-Nov-17 14:31N 47°22' W 122°24'2 3.6
2017-Nov-17 14:01N 47°23' W 122°22'2 3.7
2017-Nov-17 13:31N 47°25' W 122°23'2 4.8
2017-Nov-17 13:01N 47°27' W 122°25'3 5.1
2017-Nov-17 12:31N 47°29' W 122°26'2 4.9
2017-Nov-17 12:01N 47°32' W 122°27'3 6.3
2017-Nov-17 11:31N 47°35' W 122°28'4 8.5
2017-Nov-17 11:01N 47°39' W 122°28'4 8.4
2017-Nov-17 10:31N 47°43' W 122°27'4 8.4
2017-Nov-17 10:01N 47°47' W 122°27'4 8.5
2017-Nov-17 09:30N 47°52' W 122°28'4 8.8
2017-Nov-17 09:00N 47°56' W 122°31'34 8.8
2017-Nov-17 05:05N 48°12' W 123°16'2 8.0
2017-Nov-17 04:54N 48°12' W 123°18'3 7.1
2017-Nov-17 04:30N 48°12' W 123°23'6 9.4
2017-Nov-17 03:54N 48°12' W 123°31'3 7.9
2017-Nov-17 03:30N 48°12' W 123°36'5 8.3
2017-Nov-17 02:57N 48°12' W 123°43'17 8.1
2017-Nov-17 00:50N 48°16' W 124°08'410.1
2017-Nov-17 00:29N 48°18' W 124°12'5 9.6
2017-Nov-16 23:58N 48°20' W 124°19'4 9.2
2017-Nov-16 23:31N 48°22' W 124°25'5 8.9
2017-Nov-16 23:00N 48°23' W 124°31'4 9.0
2017-Nov-16 22:31N 48°25' W 124°37'510.0
2017-Nov-16 22:00N 48°27' W 124°44'28 8.3
2017-Nov-16 18:40N 48°34' W 125°24'1 8.3
2017-Nov-16 18:29N 48°35' W 125°26'4 8.2
2017-Nov-16 18:00N 48°38' W 125°31'4 7.8
2017-Nov-16 17:30N 48°40' W 125°35'4 7.5
2017-Nov-16 17:00N 48°43' W 125°40'4 7.6
2017-Nov-16 16:30N 48°45' W 125°44'4 7.2
2017-Nov-16 16:01N 48°47' W 125°49'3 6.4
2017-Nov-16 15:30N 48°48' W 125°53'3 6.7
2017-Nov-16 15:01N 48°50' W 125°57'3 6.8
2017-Nov-16 14:30N 48°52' W 126°02'3 6.9
2017-Nov-16 14:00N 48°54' W 126°06'  
2017-Nov-14 06:07N 53°43' W 130°56'2 8.6
2017-Nov-14 05:55N 53°45' W 130°56'4 8.4
2017-Nov-14 05:26N 53°49' W 130°57'5 8.0
2017-Nov-14 04:51N 53°54' W 130°58'4 8.0
2017-Nov-14 04:21N 53°58' W 130°59'3 8.5
2017-Nov-14 04:00N 54°01' W 130°60'4 8.7
2017-Nov-14 03:30N 54°05' W 131°02'4 8.6
2017-Nov-14 03:00N 54°09' W 131°02'4 8.8
2017-Nov-14 02:30N 54°14' W 131°03'4 9.0
2017-Nov-14 02:00N 54°18' W 131°05'  

Dump ship's entire track history